Time;durP1;ratioP1;P1;durP2;ratioP2;P2;SDS_P1;SDS_P2;PMS_P1;PMS_P2;Temp;Humidity;BMP_temperature;BMP_pressure;BME280_temperature;BME280_humidity;BME280_pressure;Samples;Min_cycle;Max_cycle;Signal;HPM_P1;HPM_P2
2021/09/11 00:01:21;;;;;;;44.30;40.93;;;;;;;19.13;100.00;101449.36;1971785;73;33447;-68
2021/09/11 00:06:52;;;;;;;45.80;42.30;;;;;;;19.10;100.00;101453.10;1971896;73;31445;-69
2021/09/11 00:12:16;;;;;;;47.47;43.97;;;;;;;19.07;100.00;101465.60;1971652;73;31135;-69
2021/09/11 00:17:42;;;;;;;48.23;44.70;;;;;;;18.99;100.00;101458.80;1971656;73;30982;-68
2021/09/11 00:23:12;;;;;;;46.97;43.17;;;;;;;18.98;100.00;101454.31;1971785;73;30979;-69
2021/09/11 00:28:37;;;;;;;46.63;43.03;;;;;;;18.97;100.00;101456.87;1971796;73;31558;-69
2021/09/11 00:34:02;;;;;;;46.80;43.30;;;;;;;19.00;100.00;101462.42;1971753;73;31052;-70
2021/09/11 00:39:27;;;;;;;46.70;43.30;;;;;;;18.97;100.00;101468.14;1971825;73;31222;-70
2021/09/11 00:44:51;;;;;;;50.33;46.43;;;;;;;18.95;100.00;101464.00;1971869;73;33430;-68
2021/09/11 00:50:16;;;;;;;46.90;43.37;;;;;;;18.94;100.00;101464.58;1971922;73;30968;-69
2021/09/11 00:55:44;;;;;;;47.33;43.63;;;;;;;18.95;100.00;101469.63;1971790;73;33385;-70
2021/09/11 01:01:09;;;;;;;47.53;43.93;;;;;;;19.00;100.00;101466.06;1971676;73;30995;-70
2021/09/11 01:06:34;;;;;;;48.27;44.63;;;;;;;18.91;100.00;101470.84;1971716;73;30976;-69
2021/09/11 01:11:59;;;;;;;48.60;44.57;;;;;;;18.94;100.00;101467.97;1971768;73;31031;-70
2021/09/11 01:17:24;;;;;;;49.20;45.50;;;;;;;18.97;100.00;101477.16;1971731;72;31053;-69
2021/09/11 01:22:48;;;;;;;48.53;44.60;;;;;;;19.00;100.00;101481.55;1946673;73;31044;-68
2021/09/11 01:28:13;;;;;;;50.23;46.50;;;;;;;18.99;100.00;101480.48;1971788;73;31026;-70
2021/09/11 01:33:38;;;;;;;50.03;46.23;;;;;;;19.00;100.00;101475.92;1971814;73;33439;-70
2021/09/11 01:39:02;;;;;;;49.73;45.67;;;;;;;18.92;100.00;101473.91;1971837;73;30957;-70
2021/09/11 01:44:27;;;;;;;48.83;45.03;;;;;;;18.92;100.00;101479.55;1971881;73;30965;-69
2021/09/11 01:49:53;;;;;;;47.90;44.20;;;;;;;18.97;100.00;101479.40;1971736;73;31017;-70
2021/09/11 01:55:20;;;;;;;47.23;43.33;;;;;;;18.92;100.00;101479.55;1971690;73;31023;-70
2021/09/11 02:00:45;;;;;;;48.03;44.53;;;;;;;18.97;100.00;101480.81;1971704;73;30971;-70
2021/09/11 02:06:10;;;;;;;49.37;45.40;;;;;;;18.97;100.00;101481.37;1971793;73;31545;-69
2021/09/11 02:11:34;;;;;;;50.43;46.73;;;;;;;18.89;100.00;101479.37;1971930;73;30951;-70
2021/09/11 02:17:01;;;;;;;47.20;43.50;;;;;;;18.92;100.00;101480.11;1971712;73;30955;-70
2021/09/11 02:22:26;;;;;;;49.07;45.47;;;;;;;18.91;100.00;101482.09;1951196;73;30974;-71
2021/09/11 02:27:50;;;;;;;48.07;44.27;;;;;;;18.86;100.00;101477.22;1971674;72;31041;-70
2021/09/11 02:33:15;;;;;;;48.97;45.23;;;;;;;18.89;100.00;101474.57;1971716;73;31048;-70
2021/09/11 02:38:40;;;;;;;47.57;43.90;;;;;;;18.88;100.00;101475.72;1971803;73;31103;-69
2021/09/11 02:44:06;;;;;;;49.67;45.97;;;;;;;18.86;100.00;101474.41;1971711;73;30970;-69
2021/09/11 02:49:31;;;;;;;48.63;44.93;;;;;;;18.84;100.00;101476.12;1971974;73;31528;-69
2021/09/11 02:54:55;;;;;;;48.47;44.70;;;;;;;18.77;100.00;101474.37;1971930;73;31533;-69
2021/09/11 03:00:20;;;;;;;48.83;45.20;;;;;;;18.77;100.00;101481.41;1971711;73;30965;-70
2021/09/11 03:05:45;;;;;;;47.50;43.83;;;;;;;18.77;100.00;101480.00;1971667;73;30958;-69
2021/09/11 03:11:10;;;;;;;48.30;44.60;;;;;;;18.76;100.00;101477.50;1971709;73;30987;-69
2021/09/11 03:16:34;;;;;;;49.30;45.50;;;;;;;18.75;100.00;101482.30;1971841;73;31014;-70
2021/09/11 03:22:05;;;;;;;49.00;45.33;;;;;;;18.76;100.00;101480.31;1964939;71;33445;-70
2021/09/11 03:27:29;;;;;;;48.03;44.33;;;;;;;18.76;100.00;101480.31;1971943;73;31060;-70
2021/09/11 03:32:54;;;;;;;48.97;45.33;;;;;;;18.73;100.00;101488.84;1971882;73;33378;-70
2021/09/11 03:38:19;;;;;;;46.87;43.27;;;;;;;18.74;100.00;101480.63;1971826;73;30969;-69
2021/09/11 03:43:43;;;;;;;48.50;44.73;;;;;;;18.72;100.00;101490.56;1971850;73;30965;-69
2021/09/11 03:49:08;;;;;;;47.27;43.77;;;;;;;18.75;100.00;101494.95;1971645;73;31022;-70
2021/09/11 03:54:32;;;;;;;48.17;44.30;;;;;;;18.68;100.00;101481.94;1971883;73;31524;-69
2021/09/11 03:59:57;;;;;;;47.70;44.10;;;;;;;18.71;100.00;101484.67;1971675;73;30949;-70
2021/09/11 04:05:23;;;;;;;47.57;43.87;;;;;;;18.68;100.00;101487.57;1971870;73;32222;-70
2021/09/11 04:10:47;;;;;;;48.77;45.13;;;;;;;18.61;100.00;101478.17;1971764;73;30972;-69
2021/09/11 04:16:12;;;;;;;48.27;44.40;;;;;;;18.57;100.00;101483.36;1971913;73;31083;-69
2021/09/11 04:21:36;;;;;;;46.50;43.07;;;;;;;18.62;100.00;101493.91;1967282;71;33529;-69
2021/09/11 04:27:01;;;;;;;48.77;45.00;;;;;;;18.58;100.00;101498.53;1971775;73;33475;-68
2021/09/11 04:32:25;;;;;;;47.93;44.43;;;;;;;18.63;100.00;101499.80;1971919;73;31529;-70
2021/09/11 04:38:09;;;;;;;46.73;43.27;;;;;;;18.65;100.00;101498.08;2017930;71;30893;-70
2021/09/11 04:43:34;;;;;;;46.77;43.30;;;;;;;18.62;100.00;101501.52;1971790;73;31465;-69
2021/09/11 04:48:59;;;;;;;47.33;43.63;;;;;;;18.62;100.00;101500.95;1971770;72;31049;-68
2021/09/11 04:54:23;;;;;;;46.20;42.90;;;;;;;18.63;100.00;101504.02;1971658;72;31058;-70
2021/09/11 04:59:48;;;;;;;46.10;43.00;;;;;;;18.64;100.00;101509.08;1971810;72;31147;-69
2021/09/11 05:05:13;;;;;;;49.10;45.50;;;;;;;18.59;100.00;101517.08;1971909;73;30980;-70
2021/09/11 05:10:38;;;;;;;47.83;44.10;;;;;;;18.60;100.00;101513.12;1971767;73;31029;-70
2021/09/11 05:16:03;;;;;;;45.73;42.17;;;;;;;18.55;100.00;101513.82;1971717;73;30962;-70
2021/09/11 05:21:28;;;;;;;47.40;44.13;;;;;;;18.51;100.00;101523.45;1967861;71;30985;-70
2021/09/11 05:26:52;;;;;;;48.20;44.90;;;;;;;18.59;100.00;101534.53;1971763;73;31080;-70
2021/09/11 05:32:17;;;;;;;49.40;46.10;;;;;;;18.51;100.00;101533.88;1971900;73;31522;-69
2021/09/11 05:37:48;;;;;;;50.43;46.77;;;;;;;18.58;100.00;101544.95;1971691;73;31353;-69
2021/09/11 05:43:13;;;;;;;49.37;45.77;;;;;;;18.56;100.00;101543.06;1971631;73;31045;-70
2021/09/11 05:48:38;;;;;;;49.53;46.23;;;;;;;18.60;100.00;101547.46;1971836;72;31016;-70
2021/09/11 05:54:02;;;;;;;51.13;47.87;;;;;;;18.58;100.00;101554.80;1971804;73;33444;-69
2021/09/11 05:59:27;;;;;;;49.33;46.10;;;;;;;18.59;100.00;101552.25;1971828;73;31454;-69
2021/09/11 06:04:51;;;;;;;50.30;46.90;;;;;;;18.55;100.00;101552.64;1971852;73;31438;-70
2021/09/11 06:10:17;;;;;;;52.17;48.67;;;;;;;18.54;100.00;101558.58;1971834;73;31028;-69
2021/09/11 06:15:42;;;;;;;51.70;48.10;;;;;;;18.57;100.00;101559.34;1971856;73;30959;-69
2021/09/11 06:21:06;;;;;;;51.57;48.17;;;;;;;18.54;100.00;101581.09;1967460;73;31441;-70
2021/09/11 06:26:30;;;;;;;51.10;47.80;;;;;;;18.62;100.00;101581.72;1971811;73;31519;-68
2021/09/11 06:31:55;;;;;;;46.93;43.77;;;;;;;18.57;100.00;101597.33;1971845;73;31629;-69
2021/09/11 06:37:19;;;;;;;47.73;44.53;;;;;;;18.59;100.00;101596.44;1971859;73;30956;-69
2021/09/11 06:42:44;;;;;;;51.37;47.93;;;;;;;18.62;100.00;101600.01;1971822;73;33432;-69
2021/09/11 06:48:09;;;;;;;52.37;48.97;;;;;;;18.63;100.00;101607.31;1971669;73;30970;-69
2021/09/11 06:53:33;;;;;;;54.73;51.30;;;;;;;18.59;100.00;101608.53;1971730;73;30945;-70
2021/09/11 06:58:58;;;;;;;51.67;48.30;;;;;;;18.59;100.00;101616.14;1971696;73;30963;-69
2021/09/11 07:04:22;;;;;;;50.97;47.60;;;;;;;18.65;100.00;101622.70;1971797;73;31089;-70
2021/09/11 07:09:47;;;;;;;52.07;48.57;;;;;;;18.71;100.00;101623.41;1971904;73;31021;-69
2021/09/11 07:15:12;;;;;;;51.10;47.83;;;;;;;18.68;100.00;101626.88;1971964;73;31493;-69
2021/09/11 07:20:37;;;;;;;53.43;50.13;;;;;;;18.69;100.00;101622.92;1971875;72;31454;-69
2021/09/11 07:26:03;;;;;;;49.90;46.70;;;;;;;18.67;100.00;101622.40;1971654;73;31053;-69
2021/09/11 07:31:27;;;;;;;50.20;46.63;;;;;;;18.74;100.00;101634.63;1972029;73;31052;-70
2021/09/11 07:36:51;;;;;;;48.77;45.10;;;;;;;18.64;100.00;101642.17;1971678;73;30986;-69
2021/09/11 07:42:16;;;;;;;50.10;46.57;;;;;;;18.71;100.00;101645.94;1971671;73;30958;-69
2021/09/11 07:47:42;;;;;;;51.13;47.57;;;;;;;18.74;100.00;101655.13;1971569;73;31035;-69
2021/09/11 07:53:07;;;;;;;51.30;47.70;;;;;;;18.70;100.00;101655.52;1971642;73;33081;-70
2021/09/11 07:58:32;;;;;;;49.50;45.93;;;;;;;18.82;100.00;101667.05;1971722;73;30959;-73
2021/09/11 08:03:56;;;;;;;49.37;45.83;;;;;;;18.86;100.00;101666.67;1971655;73;30962;-75
2021/09/11 08:09:24;;;;;;;48.07;44.77;;;;;;;18.70;100.00;101671.00;1971627;73;30993;-74
2021/09/11 08:14:48;;;;;;;47.37;44.03;;;;;;;18.87;100.00;101673.94;1971790;73;33574;-73
2021/09/11 08:20:35;;;;;;;48.10;44.67;;;;;;;18.86;100.00;101679.34;2015951;71;30877;-73
2021/09/11 08:26:01;;;;;;;48.20;44.97;;;;;;;19.01;100.00;101687.37;1971837;73;33445;-71
2021/09/11 08:31:27;;;;;;;46.87;43.47;;;;;;;19.14;100.00;101690.42;1971853;73;33448;-73
2021/09/11 08:36:54;;;;;;;47.13;43.93;;;;;;;19.24;100.00;101702.83;1971809;73;31630;-72
2021/09/11 08:42:21;;;;;;;47.07;43.83;;;;;;;19.28;100.00;101708.08;1971855;73;31468;-72
2021/09/11 08:47:47;;;;;;;48.53;45.33;;;;;;;19.10;100.00;101710.80;1971724;73;30960;-72
2021/09/11 08:53:12;;;;;;;45.50;42.50;;;;;;;19.22;100.00;101713.58;1971647;73;31459;-71
2021/09/11 08:58:37;;;;;;;46.47;43.57;;;;;;;19.48;100.00;101713.17;1971682;73;31035;-71
2021/09/11 09:04:02;;;;;;;44.60;41.80;;;;;;;19.40;100.00;101704.08;1971693;73;30986;-72
2021/09/11 09:09:31;;;;;;;43.37;40.70;;;;;;;19.48;100.00;101719.65;1971740;73;31032;-72
2021/09/11 09:12:04;;;;;;;43.73;40.90;;;;;;;19.53;100.00;101726.56;1933075;74;24616;-72
2021/09/11 09:17:43;;;;;;;44.67;41.57;;;;;;;19.62;100.00;101725.19;1971667;73;31088;-73
2021/09/11 09:23:17;;;;;;;42.87;40.17;;;;;;;19.85;100.00;101721.11;1971637;73;31042;-72
2021/09/11 09:28:42;;;;;;;40.10;37.43;;;;;;;20.04;100.00;101718.61;1971851;73;31437;-73
2021/09/11 09:34:07;;;;;;;38.53;36.20;;;;;;;20.07;100.00;101707.48;1971695;73;31040;-71
2021/09/11 09:39:39;;;;;;;40.97;38.57;;;;;;;20.18;100.00;101702.38;1971676;73;33067;-71
2021/09/11 09:45:11;;;;;;;38.33;36.07;;;;;;;20.30;100.00;101701.18;1971718;73;31103;-72
2021/09/11 09:50:39;;;;;;;38.93;36.63;;;;;;;20.25;100.00;101702.71;1971768;73;31010;-72
2021/09/11 09:56:06;;;;;;;41.00;38.47;;;;;;;20.22;100.00;101704.80;1971800;73;30932;-72
2021/09/11 10:01:31;;;;;;;42.37;38.47;;;;;;;20.84;100.00;101710.39;1971789;73;30972;-73
2021/09/11 10:07:10;;;;;;;38.10;35.80;;;;;;;21.43;100.00;101712.65;1971854;73;31494;-71
2021/09/11 10:12:41;;;;;;;36.50;34.50;;;;;;;21.08;100.00;101710.46;1971841;73;30925;-83
2021/09/11 10:18:46;;;;;;;36.70;34.70;;;;;;;20.70;100.00;101710.34;1972458;73;31036;-75
2021/09/11 10:24:37;;;;;;;36.30;33.73;;;;;;;21.06;100.00;101705.71;2016299;71;30936;-74
2021/09/11 10:30:11;;;;;;;36.20;34.20;;;;;;;21.25;100.00;101697.16;1972173;73;31030;-73
2021/09/11 10:35:38;;;;;;;35.93;34.03;;;;;;;21.09;100.00;101696.01;1972149;73;31001;-74
2021/09/11 10:41:11;;;;;;;36.83;34.73;;;;;;;20.83;100.00;101685.33;1965262;71;30963;-73
2021/09/11 10:46:50;;;;;;;35.17;33.10;;;;;;;20.89;100.00;101696.11;1972475;73;31570;-74
2021/09/11 10:52:25;;;;;;;34.00;32.00;;;;;;;21.12;100.00;101695.91;1972368;73;30932;-74
2021/09/11 10:57:50;;;;;;;35.25;33.25;;;;;;;;;;1956175;73;28072;-75
2021/09/11 11:00:23;;;;;;;39.13;35.03;;;;;;;21.40;100.00;101692.10;1934985;74;24182;-76
2021/09/11 11:09:02;;;;;;;34.60;32.45;;;;;;;21.83;100.00;101694.73;2061335;69;30566;-73
2021/09/11 11:11:32;;;;;;;32.25;30.55;;;;;;;21.88;100.00;101697.38;1950986;73;24571;-74
2021/09/11 11:14:02;;;;;;;33.75;31.48;;;;;;;21.78;100.00;101698.01;2030822;71;24108;-74
2021/09/11 11:16:50;;;;;;;32.15;30.45;;;;;;;21.90;100.00;101693.64;2030845;70;24101;-74
2021/09/11 11:19:22;;;;;;;33.08;31.35;;;;;;;21.80;100.00;101697.67;2030996;71;24158;-73
2021/09/11 11:22:04;;;;;;;29.95;28.42;;;;;;;21.78;100.00;101692.34;2030872;71;24551;-74
2021/09/11 11:24:36;;;;;;;30.85;29.10;;;;;;;21.44;100.00;101688.26;2030869;71;24578;-74
2021/09/11 11:27:08;;;;;;;33.28;31.07;;;;;;;21.39;100.00;101688.47;2030853;71;24563;-74
2021/09/11 11:29:39;;;;;;;31.37;29.52;;;;;;;21.51;100.00;101688.59;2030827;70;24089;-74
2021/09/11 11:32:10;;;;;;;31.75;30.05;;;;;;;21.46;100.00;101687.94;2030858;70;24117;-74
2021/09/11 11:34:41;;;;;;;31.50;29.73;;;;;;;21.38;100.00;101688.80;2030822;71;24122;-74
2021/09/11 11:37:12;;;;;;;30.72;28.92;;;;;;;21.56;100.00;101680.50;2030955;71;24551;-74
2021/09/11 11:39:44;;;;;;;28.97;27.50;;;;;;;21.70;100.00;101681.91;2030990;71;24105;-74
2021/09/11 11:45:17;;;;;;;29.87;28.05;;;;;;;21.84;100.00;101683.67;1972153;73;31011;-73
2021/09/11 11:50:49;;;;;;;28.80;27.07;;;;;;;21.83;100.00;101682.84;1972368;73;31410;-73
2021/09/11 11:56:21;;;;;;;28.27;26.77;;;;;;;21.75;100.00;101682.31;1972161;73;31001;-74
2021/09/11 12:02:20;;;;;;;26.93;25.45;;;;;;;21.99;100.00;101688.19;2016316;71;30861;-75
2021/09/11 12:07:55;;;;;;;30.15;28.45;;;;;;;21.79;100.00;101677.63;1972394;73;31494;-73
2021/09/11 12:13:21;;;;;;;31.37;28.73;;;;;;;21.90;100.00;101674.67;1972391;73;31448;-73
2021/09/11 12:18:46;;;;;;;32.10;30.20;;;;;;;22.23;100.00;101670.56;1972381;73;31491;-73
2021/09/11 12:24:21;;;;;;;29.80;28.00;;;;;;;22.07;100.00;101672.34;1941249;74;31037;-74
2021/09/11 12:30:04;;;;;;;29.30;27.73;;;;;;;22.14;100.00;101660.72;1972194;73;31000;-74
2021/09/11 12:35:35;;;;;;;26.55;25.15;;;;;;;22.17;100.00;101660.02;1972166;72;31055;-74
2021/09/11 12:41:00;;;;;;;24.67;23.38;;;;;;;21.85;100.00;101657.05;1957971;73;31525;-74
2021/09/11 12:46:36;;;;;;;26.50;25.20;;;;;;;21.57;100.00;101651.03;1972151;73;30970;-74
2021/09/11 12:52:03;;;;;;;25.62;24.27;;;;;;;21.55;100.00;101652.81;1972168;73;31019;-75
2021/09/11 12:57:49;;;;;;;24.20;23.00;;;;;;;21.90;100.00;101642.72;2016081;71;30985;-76
2021/09/11 13:03:14;;;;;;;21.05;19.95;;;;;;;22.22;100.00;101625.86;1972200;73;30986;-76
2021/09/11 13:08:39;;;;;;;19.80;18.90;;;;;;;22.28;100.00;101627.07;1972372;73;30982;-73
2021/09/11 13:14:06;;;;;;;18.48;17.57;;;;;;;22.27;100.00;101628.23;1972231;73;30983;-73
2021/09/11 13:19:31;;;;;;;19.55;18.55;;;;;;;22.32;100.00;101628.86;1972270;73;31144;-75
2021/09/11 13:24:56;;;;;;;18.95;17.98;;;;;;;22.30;100.00;101624.70;1972149;73;31112;-74
2021/09/11 13:30:21;;;;;;;18.70;17.77;;;;;;;22.48;100.00;101619.97;1972152;73;31074;-74
2021/09/11 13:35:46;;;;;;;18.02;17.23;;;;;;;22.62;100.00;101619.69;1972380;73;31547;-75
2021/09/11 13:41:10;;;;;;;16.27;15.58;;;;;;;22.41;100.00;101621.13;1972125;73;31019;-73
2021/09/11 13:46:39;;;;;;;13.30;12.68;;;;;;;22.62;100.00;101614.02;1972451;73;31563;-74
2021/09/11 13:52:01;;;;;;;12.10;11.50;;;;;;;22.53;100.00;101616.10;1972381;73;31556;-73
2021/09/11 13:57:26;;;;;;;11.65;11.15;;;;;;;22.53;100.00;101619.77;1972386;73;30955;-73
2021/09/11 14:02:50;;;;;;;12.10;11.40;;;;;;;22.59;100.00;101616.14;1972379;73;30956;-75
2021/09/11 14:08:15;;;;;;;11.78;11.18;;;;;;;22.72;100.00;101605.72;1972367;73;31518;-74
2021/09/11 14:13:40;;;;;;;11.40;10.90;;;;;;;22.83;100.00;101612.58;1971708;72;31015;-76
2021/09/11 14:19:04;;;;;;;11.90;11.30;;;;;;;22.82;100.00;101606.08;1971741;73;30947;-77
2021/09/11 14:24:30;;;;;;;12.37;11.63;;;;;;;22.86;100.00;101613.29;1971778;73;30956;-77
2021/09/11 14:29:55;;;;;;;11.75;11.25;;;;;;;22.88;100.00;101613.78;1972349;73;31468;-74
2021/09/11 14:35:20;;;;;;;12.23;11.50;;;;;;;22.72;100.00;101609.96;1972374;73;31438;-74
2021/09/11 14:40:44;;;;;;;12.10;11.50;;;;;;;22.67;100.00;101610.39;1972060;73;31475;-74
2021/09/11 14:46:10;;;;;;;12.15;11.55;;;;;;;22.56;100.00;101603.48;1972348;73;31497;-73
2021/09/11 14:51:54;;;;;;;15.78;15.18;;;;;;;22.88;100.00;101603.28;2016792;71;31515;-76
2021/09/11 14:57:19;;;;;;;11.55;10.98;;;;;;;22.81;100.00;101609.25;1972200;73;30985;-74
2021/09/11 15:02:49;;;;;;;12.65;12.05;;;;;;;23.00;100.00;101607.55;1972158;73;31051;-73
2021/09/11 15:08:14;;;;;;;12.75;12.05;;;;;;;22.76;100.00;101618.83;1971686;73;30951;-75
2021/09/11 15:13:39;;;;;;;12.53;11.83;;;;;;;22.64;100.00;101613.90;1971750;72;30952;-78
2021/09/11 15:19:04;;;;;;;12.55;11.85;;;;;;;22.69;100.00;101620.80;1971844;72;31042;-76
2021/09/11 15:24:29;;;;;;;12.40;11.70;;;;;;;22.69;100.00;101621.38;1971622;73;30964;-74
2021/09/11 15:29:54;;;;;;;13.05;12.35;;;;;;;22.66;100.00;101612.97;1972181;73;31066;-74
2021/09/11 15:35:19;;;;;;;12.28;11.57;;;;;;;22.55;100.00;101603.82;1971884;73;30949;-75
2021/09/11 15:40:43;;;;;;;12.23;11.60;;;;;;;22.54;100.00;101612.94;1971931;73;31534;-75
2021/09/11 15:46:13;;;;;;;11.95;11.25;;;;;;;22.66;100.00;101603.64;1972085;73;31075;-73
2021/09/11 15:51:37;;;;;;;12.65;11.95;;;;;;;22.60;100.00;101591.70;1972374;73;31456;-73
2021/09/11 15:57:02;;;;;;;12.30;11.65;;;;;;;22.33;100.00;101599.98;1972398;73;31589;-76
2021/09/11 16:02:28;;;;;;;11.93;11.38;;;;;;;22.36;100.00;101605.77;1972172;73;31036;-73
2021/09/11 16:07:53;;;;;;;11.55;11.05;;;;;;;22.36;100.00;101594.44;1972204;73;31529;-72
2021/09/11 16:13:18;;;;;;;12.78;12.10;;;;;;;22.37;100.00;101603.77;1972210;73;31060;-72
2021/09/11 16:18:42;;;;;;;12.63;11.90;;;;;;;22.59;100.00;101597.73;1972248;72;31081;-73
2021/09/11 16:24:08;;;;;;;12.00;11.40;;;;;;;22.66;100.00;101596.56;1972232;73;31041;-73
2021/09/11 16:29:32;;;;;;;12.05;11.45;;;;;;;22.72;100.00;101594.38;1972521;73;31528;-74
2021/09/11 16:35:03;;;;;;;11.78;11.18;;;;;;;22.66;100.00;101596.56;1972444;73;31445;-73
2021/09/11 16:40:28;;;;;;;12.50;11.80;;;;;;;22.46;100.00;101594.61;1971697;73;30952;-72
2021/09/11 16:45:59;;;;;;;12.07;11.40;;;;;;;22.29;100.00;101604.09;1971753;73;31062;-73
2021/09/11 16:51:23;;;;;;;12.93;12.23;;;;;;;22.13;100.00;101615.19;1971757;73;30963;-73
2021/09/11 16:56:48;;;;;;;12.80;12.20;;;;;;;22.00;100.00;101615.45;1971875;73;31499;-77
2021/09/11 17:02:15;;;;;;;14.28;13.18;;;;;;;22.11;100.00;101613.31;1968308;72;30976;-78
2021/09/11 17:07:42;;;;;;;12.90;12.23;;;;;;;22.55;100.00;101611.73;1972458;73;30944;-80
2021/09/11 17:13:10;;;;;;;13.20;12.60;;;;;;;22.45;100.00;101621.27;1971923;73;31432;-71
2021/09/11 17:18:39;;;;;;;14.07;13.28;;;;;;;21.68;100.00;101625.46;1971910;73;30981;-71
2021/09/11 17:24:04;;;;;;;14.83;14.03;;;;;;;21.48;100.00;101615.73;1972035;73;31524;-72
2021/09/11 17:29:29;;;;;;;14.30;13.60;;;;;;;21.39;100.00;101618.39;1971881;73;31569;-71
2021/09/11 17:34:53;;;;;;;15.60;14.70;;;;;;;21.25;100.00;101622.84;1971766;73;31112;-70
2021/09/11 17:40:19;;;;;;;15.40;14.60;;;;;;;21.19;100.00;101625.02;1971727;73;31071;-72
2021/09/11 17:45:44;;;;;;;15.38;14.68;;;;;;;21.24;100.00;101633.31;1971838;73;33478;-71
2021/09/11 17:51:08;;;;;;;16.70;15.80;;;;;;;21.22;100.00;101632.81;1971889;73;31491;-72
2021/09/11 17:56:33;;;;;;;17.23;15.80;;;;;;;21.35;100.00;101629.52;1971848;73;31501;-72
2021/09/11 18:01:58;;;;;;;15.38;14.50;;;;;;;22.13;100.00;101635.00;1971896;73;31631;-72
2021/09/11 18:07:23;;;;;;;14.95;13.88;;;;;;;22.04;100.00;101644.71;1971791;73;31061;-72
2021/09/11 18:12:54;;;;;;;14.28;13.58;;;;;;;22.24;100.00;101648.17;1971952;73;31547;-73
2021/09/11 18:18:23;;;;;;;14.80;14.07;;;;;;;20.80;100.00;101664.22;1971732;73;30976;-70
2021/09/11 18:23:52;;;;;;;15.10;14.23;;;;;;;20.30;100.00;101665.33;1971976;73;31115;-71
2021/09/11 18:29:16;;;;;;;15.23;14.40;;;;;;;20.24;100.00;101670.01;1971663;73;31029;-70
2021/09/11 18:34:41;;;;;;;13.40;12.80;;;;;;;20.04;100.00;101670.66;1971685;72;31139;-72
2021/09/11 18:40:09;;;;;;;13.83;13.23;;;;;;;19.94;100.00;101674.61;1971892;73;33407;-71
2021/09/11 18:45:34;;;;;;;13.90;13.30;;;;;;;19.72;100.00;101688.26;1971602;73;33016;-71
2021/09/11 18:51:01;;;;;;;13.30;12.60;;;;;;;19.56;100.00;101696.88;1971668;73;30973;-72
2021/09/11 18:56:32;;;;;;;13.90;13.37;;;;;;;19.47;100.00;101705.30;1971881;73;30996;-70
2021/09/11 19:01:57;;;;;;;13.40;12.80;;;;;;;19.38;100.00;101710.02;1971998;73;31044;-71
2021/09/11 19:07:23;;;;;;;14.70;13.90;;;;;;;19.22;100.00;101720.05;1971678;73;30977;-71
2021/09/11 19:12:48;;;;;;;16.23;15.33;;;;;;;18.98;100.00;101723.22;1971699;73;31107;-71
2021/09/11 19:18:12;;;;;;;19.20;18.00;;;;;;;18.63;100.00;101733.38;1971622;73;30978;-71
2021/09/11 19:23:37;;;;;;;19.30;18.40;;;;;;;18.52;100.00;101737.59;1971825;73;33369;-70
2021/09/11 19:29:02;;;;;;;21.07;19.97;;;;;;;18.48;100.00;101732.28;1971889;73;31574;-71
2021/09/11 19:34:27;;;;;;;18.40;17.33;;;;;;;18.38;100.00;101740.14;1971849;73;31550;-70
2021/09/11 19:39:52;;;;;;;17.73;16.93;;;;;;;18.55;100.00;101744.56;1971698;73;31065;-72
2021/09/11 19:45:16;;;;;;;16.90;16.00;;;;;;;18.44;100.00;101754.36;1971782;73;31190;-71
2021/09/11 19:50:47;;;;;;;16.03;15.23;;;;;;;18.44;100.00;101748.13;1971860;73;31149;-72
2021/09/11 19:56:19;;;;;;;16.70;15.90;;;;;;;18.50;100.00;101754.48;1971826;73;33067;-70
2021/09/11 20:01:47;;;;;;;15.67;14.83;;;;;;;18.20;100.00;101761.63;1971973;73;31492;-68
2021/09/11 20:07:34;;;;;;;17.27;16.47;;;;;;;18.23;100.00;101760.98;2016322;71;30895;-70
2021/09/11 20:13:05;;;;;;;17.57;16.70;;;;;;;18.20;100.00;101769.50;1971903;73;31563;-73
2021/09/11 20:18:50;;;;;;;17.60;16.60;;;;;;;18.22;100.00;101769.20;2016173;71;30895;-74
2021/09/11 20:24:20;;;;;;;18.00;17.20;;;;;;;18.05;100.00;101773.22;1971859;73;31472;-71
2021/09/11 20:30:06;;;;;;;17.70;16.80;;;;;;;18.04;100.00;101773.78;2015776;71;31074;-69
2021/09/11 20:35:31;;;;;;;18.03;17.17;;;;;;;17.97;100.00;101780.98;1971901;73;31516;-71
2021/09/11 20:40:56;;;;;;;18.63;17.70;;;;;;;18.00;100.00;101771.34;1971658;73;31012;-70
2021/09/11 20:46:21;;;;;;;19.63;18.70;;;;;;;17.84;100.00;101767.15;1971772;73;31077;-70
2021/09/11 20:51:47;;;;;;;18.30;17.50;;;;;;;17.87;100.00;101778.36;1971902;73;31685;-73
2021/09/11 20:57:31;;;;;;;19.10;18.20;;;;;;;17.85;100.00;101784.28;2015815;71;31007;-74
2021/09/11 21:02:55;;;;;;;19.77;18.70;;;;;;;17.74;100.00;101787.05;1971674;73;31065;-70
2021/09/11 21:08:20;;;;;;;20.20;19.20;;;;;;;17.68;100.00;101786.30;1971736;73;31001;-72
2021/09/11 21:13:45;;;;;;;21.67;20.67;;;;;;;17.40;100.00;101791.59;1971674;73;30996;-71
2021/09/11 21:19:09;;;;;;;22.43;21.23;;;;;;;17.41;100.00;101794.67;1971880;72;33414;-68
2021/09/11 21:24:33;;;;;;;24.43;23.10;;;;;;;17.38;100.00;101795.83;1971701;73;30979;-72
2021/09/11 21:29:58;;;;;;;27.50;25.70;;;;;;;17.16;100.00;101797.89;1971859;73;31627;-71
2021/09/11 21:35:23;;;;;;;28.13;26.37;;;;;;;16.84;100.00;101808.52;1971743;73;32961;-70
2021/09/11 21:40:50;;;;;;;29.73;28.00;;;;;;;16.82;100.00;101813.03;1971842;73;32974;-72
2021/09/11 21:46:17;;;;;;;31.30;29.57;;;;;;;16.87;100.00;101808.47;1971719;73;31016;-70
2021/09/11 21:51:42;;;;;;;35.00;33.00;;;;;;;16.32;100.00;101817.92;1971847;73;32898;-70
2021/09/11 21:57:08;;;;;;;38.00;35.83;;;;;;;16.22;100.00;101825.05;1971710;73;32895;-71
2021/09/11 22:02:32;;;;;;;39.80;37.40;;;;;;;16.12;100.00;101820.99;1971686;73;32907;-70
2021/09/11 22:07:57;;;;;;;40.60;38.30;;;;;;;16.02;100.00;101827.55;1971854;73;31412;-70
2021/09/11 22:13:21;;;;;;;40.77;38.27;;;;;;;16.04;100.00;101820.25;1971725;73;33001;-70
2021/09/11 22:18:46;;;;;;;41.40;38.97;;;;;;;15.80;100.00;101833.67;1971907;72;33354;-70
2021/09/11 22:24:14;;;;;;;43.67;40.73;;;;;;;15.69;100.00;101844.73;1971869;73;33462;-71
2021/09/11 22:29:38;;;;;;;42.47;39.80;;;;;;;15.59;100.00;101840.61;1971946;73;33663;-70
2021/09/11 22:35:09;;;;;;;42.90;40.30;;;;;;;15.64;100.00;101846.17;1971897;73;33530;-70
2021/09/11 22:40:35;;;;;;;43.83;41.23;;;;;;;15.29;100.00;101852.89;1971904;73;33365;-70
2021/09/11 22:46:00;;;;;;;41.57;39.17;;;;;;;15.24;100.00;101843.69;1971843;73;32999;-70
2021/09/11 22:51:25;;;;;;;42.27;39.77;;;;;;;15.45;100.00;101843.22;1971844;73;32997;-70
2021/09/11 22:56:49;;;;;;;43.07;40.63;;;;;;;15.27;100.00;101843.97;1971624;73;32910;-70
2021/09/11 23:02:14;;;;;;;43.43;40.93;;;;;;;15.25;100.00;101847.61;1971654;73;33081;-71
2021/09/11 23:07:38;;;;;;;40.73;38.33;;;;;;;15.14;100.00;101851.63;1971629;73;33043;-73
2021/09/11 23:13:04;;;;;;;42.27;39.67;;;;;;;15.06;100.00;101849.42;1971674;73;33435;-70
2021/09/11 23:18:29;;;;;;;41.93;39.43;;;;;;;15.12;100.00;101841.27;1971712;73;32990;-70
2021/09/11 23:23:53;;;;;;;40.70;38.30;;;;;;;15.06;100.00;101840.22;1971604;73;32924;-69
2021/09/11 23:29:20;;;;;;;42.10;39.50;;;;;;;14.94;100.00;101851.19;1971824;73;33441;-71
2021/09/11 23:34:45;;;;;;;43.67;41.07;;;;;;;14.96;100.00;101840.56;1971682;73;32913;-71
2021/09/11 23:40:12;;;;;;;44.20;41.70;;;;;;;14.77;100.00;101836.75;1971650;73;33027;-71
2021/09/11 23:45:37;;;;;;;41.70;39.40;;;;;;;15.30;100.00;101836.94;1971804;73;33027;-71
2021/09/11 23:51:02;;;;;;;43.50;41.10;;;;;;;14.76;100.00;101829.48;1971798;73;33452;-70